sensor_id;sensor_type;location;lat;lon;timestamp;temperature;humidity
20735;DHT22;10528;52.124;5.196;2024-03-02T00:00:49;9.40;99.90
20735;DHT22;10528;52.124;5.196;2024-03-02T00:03:18;9.30;99.90
20735;DHT22;10528;52.124;5.196;2024-03-02T00:05:50;9.40;99.90
20735;DHT22;10528;52.124;5.196;2024-03-02T00:08:25;9.30;99.90
20735;DHT22;10528;52.124;5.196;2024-03-02T00:10:58;9.30;99.90
20735;DHT22;10528;52.124;5.196;2024-03-02T00:13:27;9.30;99.90
20735;DHT22;10528;52.124;5.196;2024-03-02T00:15:57;9.40;99.90
20735;DHT22;10528;52.124;5.196;2024-03-02T00:18:26;9.40;99.90
20735;DHT22;10528;52.124;5.196;2024-03-02T00:20:57;9.40;99.90
20735;DHT22;10528;52.124;5.196;2024-03-02T00:23:27;9.50;99.90
20735;DHT22;10528;52.124;5.196;2024-03-02T00:25:58;9.40;99.90
20735;DHT22;10528;52.124;5.196;2024-03-02T00:28:36;9.60;99.90
20735;DHT22;10528;52.124;5.196;2024-03-02T00:31:08;9.50;99.90
20735;DHT22;10528;52.124;5.196;2024-03-02T00:33:43;9.30;99.90
20735;DHT22;10528;52.124;5.196;2024-03-02T00:36:16;9.30;99.90
20735;DHT22;10528;52.124;5.196;2024-03-02T00:38:50;9.10;99.90
20735;DHT22;10528;52.124;5.196;2024-03-02T00:41:31;9.10;99.90
20735;DHT22;10528;52.124;5.196;2024-03-02T00:44:03;9.00;99.90
20735;DHT22;10528;52.124;5.196;2024-03-02T00:46:34;9.00;99.90
20735;DHT22;10528;52.124;5.196;2024-03-02T00:49:04;9.00;99.90
20735;DHT22;10528;52.124;5.196;2024-03-02T00:51:37;9.00;99.90
20735;DHT22;10528;52.124;5.196;2024-03-02T00:54:08;8.90;99.90
20735;DHT22;10528;52.124;5.196;2024-03-02T00:56:36;8.80;99.90
20735;DHT22;10528;52.124;5.196;2024-03-02T00:59:03;8.80;99.90
20735;DHT22;10528;52.124;5.196;2024-03-02T01:01:30;8.80;99.90
20735;DHT22;10528;52.124;5.196;2024-03-02T01:03:59;8.70;99.90
20735;DHT22;10528;52.124;5.196;2024-03-02T01:06:27;8.60;99.90
20735;DHT22;10528;52.124;5.196;2024-03-02T01:08:54;8.50;99.90
20735;DHT22;10528;52.124;5.196;2024-03-02T01:11:21;8.50;99.90
20735;DHT22;10528;52.124;5.196;2024-03-02T01:13:51;8.50;99.90
20735;DHT22;10528;52.124;5.196;2024-03-02T01:16:19;8.50;99.90
20735;DHT22;10528;52.124;5.196;2024-03-02T01:18:46;8.50;99.90
20735;DHT22;10528;52.124;5.196;2024-03-02T01:21:15;8.60;99.90
20735;DHT22;10528;52.124;5.196;2024-03-02T01:23:42;8.50;99.90
20735;DHT22;10528;52.124;5.196;2024-03-02T01:26:09;8.50;99.90
20735;DHT22;10528;52.124;5.196;2024-03-02T01:28:35;8.50;99.90
20735;DHT22;10528;52.124;5.196;2024-03-02T01:31:02;8.50;99.90
20735;DHT22;10528;52.124;5.196;2024-03-02T01:33:29;8.50;99.90
20735;DHT22;10528;52.124;5.196;2024-03-02T01:35:56;8.40;99.90
20735;DHT22;10528;52.124;5.196;2024-03-02T01:38:23;8.40;99.90
20735;DHT22;10528;52.124;5.196;2024-03-02T01:40:50;8.40;99.90
20735;DHT22;10528;52.124;5.196;2024-03-02T01:43:18;8.30;99.90
20735;DHT22;10528;52.124;5.196;2024-03-02T01:45:45;8.40;99.90
20735;DHT22;10528;52.124;5.196;2024-03-02T01:48:12;8.40;99.90
20735;DHT22;10528;52.124;5.196;2024-03-02T01:50:39;8.30;99.90
20735;DHT22;10528;52.124;5.196;2024-03-02T01:53:07;8.30;99.90
20735;DHT22;10528;52.124;5.196;2024-03-02T01:55:35;8.30;99.90
20735;DHT22;10528;52.124;5.196;2024-03-02T01:58:02;8.30;99.90
20735;DHT22;10528;52.124;5.196;2024-03-02T02:00:29;8.30;99.90
20735;DHT22;10528;52.124;5.196;2024-03-02T02:02:56;8.30;99.90
20735;DHT22;10528;52.124;5.196;2024-03-02T02:05:24;8.30;99.90
20735;DHT22;10528;52.124;5.196;2024-03-02T02:07:51;8.20;99.90
20735;DHT22;10528;52.124;5.196;2024-03-02T02:10:18;8.20;99.90
20735;DHT22;10528;52.124;5.196;2024-03-02T02:12:45;8.10;99.90
20735;DHT22;10528;52.124;5.196;2024-03-02T02:15:29;8.20;99.90
20735;DHT22;10528;52.124;5.196;2024-03-02T02:17:58;8.30;99.90
20735;DHT22;10528;52.124;5.196;2024-03-02T02:20:26;8.10;99.90
20735;DHT22;10528;52.124;5.196;2024-03-02T02:23:00;8.10;99.90
20735;DHT22;10528;52.124;5.196;2024-03-02T02:25:28;8.10;99.90
20735;DHT22;10528;52.124;5.196;2024-03-02T02:27:57;8.00;99.90
20735;DHT22;10528;52.124;5.196;2024-03-02T02:30:30;8.00;99.90
20735;DHT22;10528;52.124;5.196;2024-03-02T02:32:59;8.00;99.90
20735;DHT22;10528;52.124;5.196;2024-03-02T02:35:26;8.00;99.90
20735;DHT22;10528;52.124;5.196;2024-03-02T02:37:54;8.00;99.90
20735;DHT22;10528;52.124;5.196;2024-03-02T02:40:22;8.00;99.90
20735;DHT22;10528;52.124;5.196;2024-03-02T02:42:50;8.00;99.90
20735;DHT22;10528;52.124;5.196;2024-03-02T02:45:19;8.00;99.90
20735;DHT22;10528;52.124;5.196;2024-03-02T02:47:46;8.00;99.90
20735;DHT22;10528;52.124;5.196;2024-03-02T02:50:14;8.00;99.90
20735;DHT22;10528;52.124;5.196;2024-03-02T02:52:41;8.00;99.90
20735;DHT22;10528;52.124;5.196;2024-03-02T02:55:10;8.00;99.90
20735;DHT22;10528;52.124;5.196;2024-03-02T02:57:41;8.00;99.90
20735;DHT22;10528;52.124;5.196;2024-03-02T03:00:13;7.90;99.90
20735;DHT22;10528;52.124;5.196;2024-03-02T03:02:48;8.00;99.90
20735;DHT22;10528;52.124;5.196;2024-03-02T03:05:18;8.00;99.90
20735;DHT22;10528;52.124;5.196;2024-03-02T03:07:45;8.00;99.90
20735;DHT22;10528;52.124;5.196;2024-03-02T03:10:13;7.90;99.90
20735;DHT22;10528;52.124;5.196;2024-03-02T03:12:41;8.00;99.90
20735;DHT22;10528;52.124;5.196;2024-03-02T03:15:10;8.00;99.90
20735;DHT22;10528;52.124;5.196;2024-03-02T03:17:41;8.00;99.90
20735;DHT22;10528;52.124;5.196;2024-03-02T03:20:08;7.80;99.90
20735;DHT22;10528;52.124;5.196;2024-03-02T03:22:39;7.90;99.90
20735;DHT22;10528;52.124;5.196;2024-03-02T03:25:06;7.90;99.90
20735;DHT22;10528;52.124;5.196;2024-03-02T03:27:36;7.90;99.90
20735;DHT22;10528;52.124;5.196;2024-03-02T03:30:04;7.90;99.90
20735;DHT22;10528;52.124;5.196;2024-03-02T03:32:33;7.90;99.90
20735;DHT22;10528;52.124;5.196;2024-03-02T03:35:00;7.80;99.90
20735;DHT22;10528;52.124;5.196;2024-03-02T03:37:26;7.90;99.90
20735;DHT22;10528;52.124;5.196;2024-03-02T03:40:02;7.90;99.90
20735;DHT22;10528;52.124;5.196;2024-03-02T03:42:36;7.90;99.90
20735;DHT22;10528;52.124;5.196;2024-03-02T03:45:04;7.90;99.90
20735;DHT22;10528;52.124;5.196;2024-03-02T03:47:33;7.90;99.90
20735;DHT22;10528;52.124;5.196;2024-03-02T03:50:00;8.00;99.90
20735;DHT22;10528;52.124;5.196;2024-03-02T03:52:27;8.00;99.90
20735;DHT22;10528;52.124;5.196;2024-03-02T03:54:53;7.90;99.90
20735;DHT22;10528;52.124;5.196;2024-03-02T03:57:20;8.00;99.90
20735;DHT22;10528;52.124;5.196;2024-03-02T03:59:47;8.00;99.90
20735;DHT22;10528;52.124;5.196;2024-03-02T04:02:14;8.00;99.90
20735;DHT22;10528;52.124;5.196;2024-03-02T04:04:41;8.00;99.90
20735;DHT22;10528;52.124;5.196;2024-03-02T04:07:08;8.00;99.90
20735;DHT22;10528;52.124;5.196;2024-03-02T04:09:35;8.00;99.90
20735;DHT22;10528;52.124;5.196;2024-03-02T04:12:02;8.00;99.90
20735;DHT22;10528;52.124;5.196;2024-03-02T04:14:30;8.00;99.90
20735;DHT22;10528;52.124;5.196;2024-03-02T04:16:56;8.00;99.90
20735;DHT22;10528;52.124;5.196;2024-03-02T04:19:23;8.00;99.90
20735;DHT22;10528;52.124;5.196;2024-03-02T04:21:50;8.00;99.90
20735;DHT22;10528;52.124;5.196;2024-03-02T04:24:17;8.00;99.90
20735;DHT22;10528;52.124;5.196;2024-03-02T04:26:44;8.00;99.90
20735;DHT22;10528;52.124;5.196;2024-03-02T04:29:11;8.00;99.90
20735;DHT22;10528;52.124;5.196;2024-03-02T04:31:38;8.00;99.90
20735;DHT22;10528;52.124;5.196;2024-03-02T04:34:05;8.10;99.90
20735;DHT22;10528;52.124;5.196;2024-03-02T04:36:32;8.10;99.90
20735;DHT22;10528;52.124;5.196;2024-03-02T04:38:59;8.10;99.90
20735;DHT22;10528;52.124;5.196;2024-03-02T04:41:26;8.10;99.90
20735;DHT22;10528;52.124;5.196;2024-03-02T04:43:52;8.10;99.90
20735;DHT22;10528;52.124;5.196;2024-03-02T04:46:19;8.00;99.90
20735;DHT22;10528;52.124;5.196;2024-03-02T04:48:46;8.00;99.90
20735;DHT22;10528;52.124;5.196;2024-03-02T04:51:13;7.90;99.90
20735;DHT22;10528;52.124;5.196;2024-03-02T04:53:40;7.90;99.90
20735;DHT22;10528;52.124;5.196;2024-03-02T04:56:07;7.80;99.90
20735;DHT22;10528;52.124;5.196;2024-03-02T04:58:49;7.80;99.90
20735;DHT22;10528;52.124;5.196;2024-03-02T05:01:16;7.70;99.90
20735;DHT22;10528;52.124;5.196;2024-03-02T05:03:44;7.70;99.90
20735;DHT22;10528;52.124;5.196;2024-03-02T05:06:11;7.70;99.90
20735;DHT22;10528;52.124;5.196;2024-03-02T05:08:38;7.70;99.90
20735;DHT22;10528;52.124;5.196;2024-03-02T05:11:05;7.70;99.90
20735;DHT22;10528;52.124;5.196;2024-03-02T05:13:51;7.70;99.90
20735;DHT22;10528;52.124;5.196;2024-03-02T05:16:18;7.60;99.90
20735;DHT22;10528;52.124;5.196;2024-03-02T05:18:44;7.60;99.90
20735;DHT22;10528;52.124;5.196;2024-03-02T05:21:11;7.60;99.90
20735;DHT22;10528;52.124;5.196;2024-03-02T05:23:39;7.60;99.90
20735;DHT22;10528;52.124;5.196;2024-03-02T05:26:06;7.60;99.90
20735;DHT22;10528;52.124;5.196;2024-03-02T05:28:32;7.60;99.90
20735;DHT22;10528;52.124;5.196;2024-03-02T05:30:59;7.60;99.90
20735;DHT22;10528;52.124;5.196;2024-03-02T05:33:26;7.60;99.90
20735;DHT22;10528;52.124;5.196;2024-03-02T05:35:53;7.50;99.90
20735;DHT22;10528;52.124;5.196;2024-03-02T05:38:20;7.60;99.90
20735;DHT22;10528;52.124;5.196;2024-03-02T05:40:48;7.60;99.90
20735;DHT22;10528;52.124;5.196;2024-03-02T05:43:15;7.60;99.90
20735;DHT22;10528;52.124;5.196;2024-03-02T05:45:42;7.60;99.90
20735;DHT22;10528;52.124;5.196;2024-03-02T05:48:09;7.60;99.90
20735;DHT22;10528;52.124;5.196;2024-03-02T05:50:36;7.50;99.90
20735;DHT22;10528;52.124;5.196;2024-03-02T05:53:03;7.50;99.90
20735;DHT22;10528;52.124;5.196;2024-03-02T05:55:30;7.50;99.90
20735;DHT22;10528;52.124;5.196;2024-03-02T05:57:57;7.50;99.90
20735;DHT22;10528;52.124;5.196;2024-03-02T06:00:24;7.50;99.90
20735;DHT22;10528;52.124;5.196;2024-03-02T06:02:51;7.60;99.90
20735;DHT22;10528;52.124;5.196;2024-03-02T06:05:19;7.70;99.90
20735;DHT22;10528;52.124;5.196;2024-03-02T06:07:46;7.70;99.90
20735;DHT22;10528;52.124;5.196;2024-03-02T06:10:13;7.70;99.90
20735;DHT22;10528;52.124;5.196;2024-03-02T06:12:40;7.70;99.90
20735;DHT22;10528;52.124;5.196;2024-03-02T06:15:08;7.80;99.90
20735;DHT22;10528;52.124;5.196;2024-03-02T06:17:35;7.80;99.90
20735;DHT22;10528;52.124;5.196;2024-03-02T06:20:03;7.80;99.90
20735;DHT22;10528;52.124;5.196;2024-03-02T06:22:30;7.80;99.90
20735;DHT22;10528;52.124;5.196;2024-03-02T06:24:57;7.80;99.90
20735;DHT22;10528;52.124;5.196;2024-03-02T06:27:24;7.70;99.90
20735;DHT22;10528;52.124;5.196;2024-03-02T06:29:51;7.80;99.90
20735;DHT22;10528;52.124;5.196;2024-03-02T06:32:18;7.80;99.90
20735;DHT22;10528;52.124;5.196;2024-03-02T06:34:45;7.70;99.90
20735;DHT22;10528;52.124;5.196;2024-03-02T06:37:12;7.70;99.90
20735;DHT22;10528;52.124;5.196;2024-03-02T06:39:39;7.80;99.90
20735;DHT22;10528;52.124;5.196;2024-03-02T06:42:06;7.80;99.90
20735;DHT22;10528;52.124;5.196;2024-03-02T06:44:34;7.80;99.90
20735;DHT22;10528;52.124;5.196;2024-03-02T06:47:01;7.80;99.90
20735;DHT22;10528;52.124;5.196;2024-03-02T06:49:28;7.90;99.90
20735;DHT22;10528;52.124;5.196;2024-03-02T06:51:54;7.90;99.90
20735;DHT22;10528;52.124;5.196;2024-03-02T06:54:22;7.80;99.90
20735;DHT22;10528;52.124;5.196;2024-03-02T06:56:49;7.80;99.90
20735;DHT22;10528;52.124;5.196;2024-03-02T06:59:16;7.70;99.90
20735;DHT22;10528;52.124;5.196;2024-03-02T07:01:43;7.80;99.90
20735;DHT22;10528;52.124;5.196;2024-03-02T07:04:10;7.90;99.90
20735;DHT22;10528;52.124;5.196;2024-03-02T07:06:37;7.90;99.90
20735;DHT22;10528;52.124;5.196;2024-03-02T07:09:04;7.90;99.90
20735;DHT22;10528;52.124;5.196;2024-03-02T07:11:31;8.00;99.90
20735;DHT22;10528;52.124;5.196;2024-03-02T07:14:00;8.10;99.90
20735;DHT22;10528;52.124;5.196;2024-03-02T07:16:27;8.10;99.90
20735;DHT22;10528;52.124;5.196;2024-03-02T07:18:59;8.20;99.90
20735;DHT22;10528;52.124;5.196;2024-03-02T07:21:28;8.30;99.90
20735;DHT22;10528;52.124;5.196;2024-03-02T07:23:55;8.40;99.90
20735;DHT22;10528;52.124;5.196;2024-03-02T07:26:22;8.40;99.90
20735;DHT22;10528;52.124;5.196;2024-03-02T07:28:52;8.50;99.90
20735;DHT22;10528;52.124;5.196;2024-03-02T07:31:19;8.40;99.90
20735;DHT22;10528;52.124;5.196;2024-03-02T07:33:46;8.40;99.90
20735;DHT22;10528;52.124;5.196;2024-03-02T07:36:14;8.40;99.90
20735;DHT22;10528;52.124;5.196;2024-03-02T07:38:43;8.40;99.90
20735;DHT22;10528;52.124;5.196;2024-03-02T07:41:11;8.40;99.90
20735;DHT22;10528;52.124;5.196;2024-03-02T07:43:38;8.30;99.90
20735;DHT22;10528;52.124;5.196;2024-03-02T07:46:05;8.30;99.90
20735;DHT22;10528;52.124;5.196;2024-03-02T07:48:35;8.20;99.90
20735;DHT22;10528;52.124;5.196;2024-03-02T07:51:02;8.20;99.90
20735;DHT22;10528;52.124;5.196;2024-03-02T07:53:29;8.20;99.90
20735;DHT22;10528;52.124;5.196;2024-03-02T07:55:56;8.20;99.90
20735;DHT22;10528;52.124;5.196;2024-03-02T07:58:29;8.10;99.90
20735;DHT22;10528;52.124;5.196;2024-03-02T08:00:57;8.20;99.90
20735;DHT22;10528;52.124;5.196;2024-03-02T08:03:24;8.20;99.90
20735;DHT22;10528;52.124;5.196;2024-03-02T08:05:51;8.20;99.90
20735;DHT22;10528;52.124;5.196;2024-03-02T08:08:18;8.20;99.90
20735;DHT22;10528;52.124;5.196;2024-03-02T08:10:45;8.10;99.90
20735;DHT22;10528;52.124;5.196;2024-03-02T08:13:12;8.10;99.90
20735;DHT22;10528;52.124;5.196;2024-03-02T08:15:39;8.10;99.90
20735;DHT22;10528;52.124;5.196;2024-03-02T08:18:06;8.20;99.90
20735;DHT22;10528;52.124;5.196;2024-03-02T08:20:33;8.20;99.90
20735;DHT22;10528;52.124;5.196;2024-03-02T08:23:00;8.20;99.90
20735;DHT22;10528;52.124;5.196;2024-03-02T08:25:27;8.30;99.90
20735;DHT22;10528;52.124;5.196;2024-03-02T08:27:54;8.30;99.90
20735;DHT22;10528;52.124;5.196;2024-03-02T08:30:21;8.40;99.90
20735;DHT22;10528;52.124;5.196;2024-03-02T08:32:49;8.50;99.90
20735;DHT22;10528;52.124;5.196;2024-03-02T08:35:16;8.40;99.90
20735;DHT22;10528;52.124;5.196;2024-03-02T08:37:43;8.50;99.90
20735;DHT22;10528;52.124;5.196;2024-03-02T08:40:10;8.60;99.90
20735;DHT22;10528;52.124;5.196;2024-03-02T08:42:43;8.60;99.90
20735;DHT22;10528;52.124;5.196;2024-03-02T08:45:10;8.60;99.90
20735;DHT22;10528;52.124;5.196;2024-03-02T08:47:37;8.60;99.90
20735;DHT22;10528;52.124;5.196;2024-03-02T08:50:06;8.80;99.90
20735;DHT22;10528;52.124;5.196;2024-03-02T08:52:35;8.80;99.90
20735;DHT22;10528;52.124;5.196;2024-03-02T08:55:02;8.90;99.90
20735;DHT22;10528;52.124;5.196;2024-03-02T08:57:29;8.90;99.90
20735;DHT22;10528;52.124;5.196;2024-03-02T08:59:57;9.00;99.90
20735;DHT22;10528;52.124;5.196;2024-03-02T09:02:25;8.90;99.90
20735;DHT22;10528;52.124;5.196;2024-03-02T09:04:52;8.90;99.90
20735;DHT22;10528;52.124;5.196;2024-03-02T09:07:19;9.00;99.90
20735;DHT22;10528;52.124;5.196;2024-03-02T09:09:46;9.00;99.90
20735;DHT22;10528;52.124;5.196;2024-03-02T09:12:13;9.10;99.90
20735;DHT22;10528;52.124;5.196;2024-03-02T09:14:40;9.20;99.90
20735;DHT22;10528;52.124;5.196;2024-03-02T09:17:08;9.30;99.90
20735;DHT22;10528;52.124;5.196;2024-03-02T09:19:37;9.30;99.90
20735;DHT22;10528;52.124;5.196;2024-03-02T09:22:05;9.30;99.90
20735;DHT22;10528;52.124;5.196;2024-03-02T09:24:32;9.50;99.90
20735;DHT22;10528;52.124;5.196;2024-03-02T09:27:00;9.50;99.90
20735;DHT22;10528;52.124;5.196;2024-03-02T09:29:26;9.50;99.90
20735;DHT22;10528;52.124;5.196;2024-03-02T09:31:53;9.60;99.90
20735;DHT22;10528;52.124;5.196;2024-03-02T09:34:20;9.70;99.90
20735;DHT22;10528;52.124;5.196;2024-03-02T09:36:50;9.80;99.90
20735;DHT22;10528;52.124;5.196;2024-03-02T09:39:18;9.80;99.90
20735;DHT22;10528;52.124;5.196;2024-03-02T09:41:47;9.80;99.90
20735;DHT22;10528;52.124;5.196;2024-03-02T09:44:15;10.10;99.90
20735;DHT22;10528;52.124;5.196;2024-03-02T09:46:42;10.20;99.90
20735;DHT22;10528;52.124;5.196;2024-03-02T09:49:11;10.20;99.90
20735;DHT22;10528;52.124;5.196;2024-03-02T09:51:37;10.20;99.90
20735;DHT22;10528;52.124;5.196;2024-03-02T09:54:08;10.40;99.90
20735;DHT22;10528;52.124;5.196;2024-03-02T09:56:47;10.40;99.90
20735;DHT22;10528;52.124;5.196;2024-03-02T09:59:14;10.50;99.90
20735;DHT22;10528;52.124;5.196;2024-03-02T10:02:00;10.60;99.90
20735;DHT22;10528;52.124;5.196;2024-03-02T10:04:29;10.50;99.90
20735;DHT22;10528;52.124;5.196;2024-03-02T10:07:18;10.60;99.90
20735;DHT22;10528;52.124;5.196;2024-03-02T10:09:47;10.70;99.90
20735;DHT22;10528;52.124;5.196;2024-03-02T10:12:16;11.00;99.90
20735;DHT22;10528;52.124;5.196;2024-03-02T10:14:44;11.10;99.90
20735;DHT22;10528;52.124;5.196;2024-03-02T10:17:13;11.30;99.90
20735;DHT22;10528;52.124;5.196;2024-03-02T10:19:42;11.20;99.90
20735;DHT22;10528;52.124;5.196;2024-03-02T10:22:10;11.20;99.90
20735;DHT22;10528;52.124;5.196;2024-03-02T10:24:41;11.30;99.90
20735;DHT22;10528;52.124;5.196;2024-03-02T10:27:25;11.50;99.90
20735;DHT22;10528;52.124;5.196;2024-03-02T10:29:54;11.50;99.90
20735;DHT22;10528;52.124;5.196;2024-03-02T10:32:22;11.80;99.90
20735;DHT22;10528;52.124;5.196;2024-03-02T10:34:50;11.60;99.90
20735;DHT22;10528;52.124;5.196;2024-03-02T10:37:17;11.80;99.90
20735;DHT22;10528;52.124;5.196;2024-03-02T10:39:46;11.80;99.90
20735;DHT22;10528;52.124;5.196;2024-03-02T10:42:14;11.70;99.90
20735;DHT22;10528;52.124;5.196;2024-03-02T10:44:42;11.60;99.90
20735;DHT22;10528;52.124;5.196;2024-03-02T10:47:12;11.40;99.90
20735;DHT22;10528;52.124;5.196;2024-03-02T10:49:42;11.50;99.90
20735;DHT22;10528;52.124;5.196;2024-03-02T10:52:10;11.60;99.90
20735;DHT22;10528;52.124;5.196;2024-03-02T10:54:37;11.80;99.90
20735;DHT22;10528;52.124;5.196;2024-03-02T10:57:07;11.80;99.90
20735;DHT22;10528;52.124;5.196;2024-03-02T10:59:37;11.90;99.90
20735;DHT22;10528;52.124;5.196;2024-03-02T11:02:21;12.00;99.90
20735;DHT22;10528;52.124;5.196;2024-03-02T11:04:49;12.00;99.90
20735;DHT22;10528;52.124;5.196;2024-03-02T11:07:21;12.00;99.90
20735;DHT22;10528;52.124;5.196;2024-03-02T11:10:00;12.00;99.90
20735;DHT22;10528;52.124;5.196;2024-03-02T11:12:38;12.10;99.90
20735;DHT22;10528;52.124;5.196;2024-03-02T11:15:11;12.00;99.90
20735;DHT22;10528;52.124;5.196;2024-03-02T11:17:44;12.20;99.90
20735;DHT22;10528;52.124;5.196;2024-03-02T11:20:13;12.10;99.90
20735;DHT22;10528;52.124;5.196;2024-03-02T11:22:41;12.20;99.90
20735;DHT22;10528;52.124;5.196;2024-03-02T11:25:23;12.40;99.90
20735;DHT22;10528;52.124;5.196;2024-03-02T11:33:03;12.20;99.90
20735;DHT22;10528;52.124;5.196;2024-03-02T11:35:36;12.10;99.90
20735;DHT22;10528;52.124;5.196;2024-03-02T11:38:14;12.30;99.90
20735;DHT22;10528;52.124;5.196;2024-03-02T11:40:41;12.30;99.90
20735;DHT22;10528;52.124;5.196;2024-03-02T11:43:09;12.40;99.90
20735;DHT22;10528;52.124;5.196;2024-03-02T11:45:37;12.40;99.90
20735;DHT22;10528;52.124;5.196;2024-03-02T11:48:14;12.60;99.90
20735;DHT22;10528;52.124;5.196;2024-03-02T11:50:46;12.60;99.90
20735;DHT22;10528;52.124;5.196;2024-03-02T11:53:16;12.40;99.90
20735;DHT22;10528;52.124;5.196;2024-03-02T11:55:44;12.50;99.90
20735;DHT22;10528;52.124;5.196;2024-03-02T11:58:16;12.80;99.90
20735;DHT22;10528;52.124;5.196;2024-03-02T12:00:54;12.80;99.90
20735;DHT22;10528;52.124;5.196;2024-03-02T12:03:24;12.50;99.90
20735;DHT22;10528;52.124;5.196;2024-03-02T12:05:53;12.20;99.90
20735;DHT22;10528;52.124;5.196;2024-03-02T12:08:21;12.20;99.90
20735;DHT22;10528;52.124;5.196;2024-03-02T12:10:59;12.40;99.90
20735;DHT22;10528;52.124;5.196;2024-03-02T12:13:29;12.60;99.90
20735;DHT22;10528;52.124;5.196;2024-03-02T12:15:56;12.60;99.90
20735;DHT22;10528;52.124;5.196;2024-03-02T12:18:24;12.50;99.90
20735;DHT22;10528;52.124;5.196;2024-03-02T12:20:52;12.40;99.90
20735;DHT22;10528;52.124;5.196;2024-03-02T12:23:19;12.50;99.90
20735;DHT22;10528;52.124;5.196;2024-03-02T12:25:47;12.50;99.90
20735;DHT22;10528;52.124;5.196;2024-03-02T12:28:14;12.50;99.90
20735;DHT22;10528;52.124;5.196;2024-03-02T12:30:41;12.80;99.90
20735;DHT22;10528;52.124;5.196;2024-03-02T12:33:11;12.80;99.90
20735;DHT22;10528;52.124;5.196;2024-03-02T12:35:38;12.90;99.90
20735;DHT22;10528;52.124;5.196;2024-03-02T12:38:06;12.80;99.90
20735;DHT22;10528;52.124;5.196;2024-03-02T12:40:33;12.70;99.90
20735;DHT22;10528;52.124;5.196;2024-03-02T12:43:00;12.80;99.90
20735;DHT22;10528;52.124;5.196;2024-03-02T12:45:27;12.90;99.90
20735;DHT22;10528;52.124;5.196;2024-03-02T12:47:54;12.90;99.90
20735;DHT22;10528;52.124;5.196;2024-03-02T12:50:21;12.80;99.90
20735;DHT22;10528;52.124;5.196;2024-03-02T12:52:52;12.80;99.90
20735;DHT22;10528;52.124;5.196;2024-03-02T12:55:23;13.00;99.90
20735;DHT22;10528;52.124;5.196;2024-03-02T12:57:52;12.90;99.90
20735;DHT22;10528;52.124;5.196;2024-03-02T13:00:20;13.10;99.90
20735;DHT22;10528;52.124;5.196;2024-03-02T13:02:50;13.00;99.90
20735;DHT22;10528;52.124;5.196;2024-03-02T13:05:18;13.00;99.90
20735;DHT22;10528;52.124;5.196;2024-03-02T13:07:48;13.20;99.90
20735;DHT22;10528;52.124;5.196;2024-03-02T13:10:16;13.10;99.90
20735;DHT22;10528;52.124;5.196;2024-03-02T13:12:45;13.00;99.90
20735;DHT22;10528;52.124;5.196;2024-03-02T13:15:12;13.10;99.90
20735;DHT22;10528;52.124;5.196;2024-03-02T13:17:45;13.00;99.90
20735;DHT22;10528;52.124;5.196;2024-03-02T13:20:15;13.20;99.90
20735;DHT22;10528;52.124;5.196;2024-03-02T13:22:43;13.00;99.90
20735;DHT22;10528;52.124;5.196;2024-03-02T13:25:10;13.00;99.90
20735;DHT22;10528;52.124;5.196;2024-03-02T13:27:39;13.00;99.90
20735;DHT22;10528;52.124;5.196;2024-03-02T13:30:07;12.70;99.90
20735;DHT22;10528;52.124;5.196;2024-03-02T13:32:36;12.90;99.90
20735;DHT22;10528;52.124;5.196;2024-03-02T13:35:03;13.00;99.90
20735;DHT22;10528;52.124;5.196;2024-03-02T13:37:30;13.10;99.90
20735;DHT22;10528;52.124;5.196;2024-03-02T13:39:57;13.00;99.90
20735;DHT22;10528;52.124;5.196;2024-03-02T13:42:24;13.10;99.90
20735;DHT22;10528;52.124;5.196;2024-03-02T13:44:52;13.10;99.90
20735;DHT22;10528;52.124;5.196;2024-03-02T13:47:19;13.10;99.90
20735;DHT22;10528;52.124;5.196;2024-03-02T13:49:47;12.90;99.90
20735;DHT22;10528;52.124;5.196;2024-03-02T13:52:22;12.90;99.90
20735;DHT22;10528;52.124;5.196;2024-03-02T13:54:49;12.80;99.90
20735;DHT22;10528;52.124;5.196;2024-03-02T13:57:16;12.70;99.90
20735;DHT22;10528;52.124;5.196;2024-03-02T13:59:49;12.60;99.90
20735;DHT22;10528;52.124;5.196;2024-03-02T14:02:17;12.60;99.90
20735;DHT22;10528;52.124;5.196;2024-03-02T14:04:44;12.60;99.90
20735;DHT22;10528;52.124;5.196;2024-03-02T14:07:11;12.70;99.90
20735;DHT22;10528;52.124;5.196;2024-03-02T14:09:38;12.60;99.90
20735;DHT22;10528;52.124;5.196;2024-03-02T14:12:06;12.60;99.90
20735;DHT22;10528;52.124;5.196;2024-03-02T14:14:33;12.70;99.90
20735;DHT22;10528;52.124;5.196;2024-03-02T14:17:00;12.60;99.90
20735;DHT22;10528;52.124;5.196;2024-03-02T14:19:30;12.50;99.90
20735;DHT22;10528;52.124;5.196;2024-03-02T14:21:58;12.50;99.90
20735;DHT22;10528;52.124;5.196;2024-03-02T14:24:26;12.50;99.90
20735;DHT22;10528;52.124;5.196;2024-03-02T14:26:54;12.50;99.90
20735;DHT22;10528;52.124;5.196;2024-03-02T14:29:36;12.50;99.90
20735;DHT22;10528;52.124;5.196;2024-03-02T14:32:05;12.50;99.90
20735;DHT22;10528;52.124;5.196;2024-03-02T14:34:32;12.40;99.90
20735;DHT22;10528;52.124;5.196;2024-03-02T14:37:02;12.50;99.90
20735;DHT22;10528;52.124;5.196;2024-03-02T14:39:30;12.50;99.90
20735;DHT22;10528;52.124;5.196;2024-03-02T14:42:01;12.50;99.90
20735;DHT22;10528;52.124;5.196;2024-03-02T14:44:28;12.40;99.90
20735;DHT22;10528;52.124;5.196;2024-03-02T14:46:55;12.40;99.90
20735;DHT22;10528;52.124;5.196;2024-03-02T14:49:25;12.50;99.90
20735;DHT22;10528;52.124;5.196;2024-03-02T14:51:55;12.50;99.90
20735;DHT22;10528;52.124;5.196;2024-03-02T14:54:22;12.50;99.90
20735;DHT22;10528;52.124;5.196;2024-03-02T14:56:50;12.60;99.90
20735;DHT22;10528;52.124;5.196;2024-03-02T14:59:18;12.60;99.90
20735;DHT22;10528;52.124;5.196;2024-03-02T15:01:45;12.40;99.90
20735;DHT22;10528;52.124;5.196;2024-03-02T15:04:13;12.40;99.90
20735;DHT22;10528;52.124;5.196;2024-03-02T15:06:41;12.40;99.90
20735;DHT22;10528;52.124;5.196;2024-03-02T15:09:08;12.40;99.90
20735;DHT22;10528;52.124;5.196;2024-03-02T15:11:35;12.50;99.90
20735;DHT22;10528;52.124;5.196;2024-03-02T15:14:02;12.50;99.90
20735;DHT22;10528;52.124;5.196;2024-03-02T15:16:29;12.50;99.90
20735;DHT22;10528;52.124;5.196;2024-03-02T15:18:56;12.60;99.90
20735;DHT22;10528;52.124;5.196;2024-03-02T15:21:23;12.60;99.90
20735;DHT22;10528;52.124;5.196;2024-03-02T15:23:50;12.60;99.90
20735;DHT22;10528;52.124;5.196;2024-03-02T15:26:17;12.80;99.90
20735;DHT22;10528;52.124;5.196;2024-03-02T15:28:44;12.80;99.90
20735;DHT22;10528;52.124;5.196;2024-03-02T15:31:11;12.90;99.90
20735;DHT22;10528;52.124;5.196;2024-03-02T15:33:38;12.90;99.90
20735;DHT22;10528;52.124;5.196;2024-03-02T15:36:05;12.80;99.90
20735;DHT22;10528;52.124;5.196;2024-03-02T15:38:33;12.90;99.90
20735;DHT22;10528;52.124;5.196;2024-03-02T15:41:07;12.80;99.90
20735;DHT22;10528;52.124;5.196;2024-03-02T15:43:34;12.80;99.90
20735;DHT22;10528;52.124;5.196;2024-03-02T15:46:04;12.80;99.90
20735;DHT22;10528;52.124;5.196;2024-03-02T15:48:32;12.80;99.90
20735;DHT22;10528;52.124;5.196;2024-03-02T15:50:59;12.80;99.90
20735;DHT22;10528;52.124;5.196;2024-03-02T15:53:31;12.80;99.90